createdAt,value
2022-10-18T00:00:06.795Z,12.64
2022-10-18T00:02:33.889Z,12.71
2022-10-18T00:05:00.856Z,12.70
2022-10-18T00:07:27.497Z,12.67
2022-10-18T00:09:54.183Z,12.57
2022-10-18T00:12:20.912Z,12.41
2022-10-18T00:14:50.916Z,12.28
2022-10-18T00:17:17.728Z,12.05
2022-10-18T00:19:44.482Z,11.84
2022-10-18T00:22:11.078Z,11.69
2022-10-18T00:24:37.680Z,11.62
2022-10-18T00:27:04.352Z,11.58
2022-10-18T00:29:31.383Z,11.57
2022-10-18T00:31:57.955Z,11.58
2022-10-18T00:34:24.691Z,11.55
2022-10-18T00:36:51.320Z,11.51
2022-10-18T00:39:20.261Z,11.42
2022-10-18T00:41:47.729Z,11.28
2022-10-18T00:44:14.308Z,11.21
2022-10-18T00:46:43.778Z,11.16
2022-10-18T00:49:21.817Z,11.11
2022-10-18T00:51:52.521Z,10.96
2022-10-18T00:54:20.878Z,10.86
2022-10-18T00:56:47.516Z,10.82
2022-10-18T00:59:16.317Z,10.64
2022-10-18T01:01:43.291Z,10.51
2022-10-18T01:04:10.021Z,10.56
2022-10-18T01:07:02.581Z,10.65
2022-10-18T01:09:38.929Z,10.74
2022-10-18T01:12:30.534Z,10.77
2022-10-18T01:15:10.651Z,10.81
2022-10-18T01:17:46.735Z,10.78
2022-10-18T01:20:13.177Z,10.69
2022-10-18T01:22:45.330Z,10.58
2022-10-18T01:25:34.451Z,10.55
2022-10-18T01:28:15.878Z,10.52
2022-10-18T01:31:12.214Z,10.53
2022-10-18T01:33:51.275Z,10.53
2022-10-18T01:36:23.670Z,10.50
2022-10-18T01:38:53.582Z,10.43
2022-10-18T01:41:24.022Z,10.36
2022-10-18T01:43:54.582Z,10.37
2022-10-18T01:46:24.105Z,10.41
2022-10-18T01:48:52.710Z,10.44
2022-10-18T01:51:31.635Z,10.40
2022-10-18T01:53:58.663Z,10.35
2022-10-18T01:56:50.823Z,10.31
2022-10-18T01:59:55.683Z,10.26
2022-10-18T02:02:47.157Z,10.19
2022-10-18T02:05:19.420Z,10.25
2022-10-18T02:08:23.397Z,10.25
2022-10-18T02:11:12.546Z,10.22
2022-10-18T02:13:44.584Z,10.22
2022-10-18T02:16:16.576Z,10.24
2022-10-18T02:18:52.067Z,10.26
2022-10-18T02:21:20.611Z,10.24
2022-10-18T02:23:47.460Z,10.25
2022-10-18T02:26:15.986Z,10.30
2022-10-18T02:28:43.212Z,10.23
2022-10-18T02:31:12.920Z,10.19
2022-10-18T02:33:53.348Z,10.16
2022-10-18T02:36:34.981Z,10.17
2022-10-18T02:39:11.789Z,10.13
2022-10-18T02:41:38.555Z,10.02
2022-10-18T02:44:05.150Z,9.99
2022-10-18T02:46:31.909Z,9.97
2022-10-18T02:48:58.483Z,9.99
2022-10-18T02:51:25.357Z,10.02
2022-10-18T02:53:51.972Z,10.02
2022-10-18T02:56:18.744Z,10.02
2022-10-18T02:58:45.340Z,10.08
2022-10-18T03:01:11.945Z,10.10
2022-10-18T03:03:38.611Z,10.08
2022-10-18T03:06:05.871Z,10.05
2022-10-18T03:08:32.464Z,9.97
2022-10-18T03:10:59.037Z,9.96
2022-10-18T03:13:25.671Z,9.95
2022-10-18T03:15:52.263Z,9.94
2022-10-18T03:18:18.878Z,9.92
2022-10-18T03:20:45.471Z,9.91
2022-10-18T03:23:12.118Z,9.85
2022-10-18T03:25:40.554Z,9.80
2022-10-18T03:28:09.474Z,9.83
2022-10-18T03:30:36.061Z,9.84
2022-10-18T03:33:02.614Z,9.86
2022-10-18T03:35:29.219Z,9.87
2022-10-18T03:37:55.803Z,9.89
2022-10-18T03:40:22.723Z,9.88
2022-10-18T03:42:49.309Z,9.83
2022-10-18T03:45:15.922Z,9.78
2022-10-18T03:47:42.483Z,9.74
2022-10-18T03:50:09.367Z,9.72
2022-10-18T03:52:36.065Z,9.71
2022-10-18T03:55:05.193Z,9.69
2022-10-18T03:57:31.755Z,9.58
2022-10-18T03:59:58.323Z,9.48
2022-10-18T04:02:25.991Z,9.38
2022-10-18T04:04:52.792Z,9.33
2022-10-18T04:07:20.725Z,9.33
2022-10-18T04:09:48.670Z,9.33
2022-10-18T04:12:15.317Z,9.29
2022-10-18T04:14:41.873Z,9.27
2022-10-18T04:17:08.611Z,9.24
2022-10-18T04:19:35.226Z,9.24
2022-10-18T04:22:01.839Z,9.22
2022-10-18T04:24:29.820Z,9.23
2022-10-18T04:26:56.394Z,9.21
2022-10-18T04:29:24.520Z,9.22
2022-10-18T04:31:51.122Z,9.18
2022-10-18T04:34:17.697Z,9.13
2022-10-18T04:36:45.518Z,9.11
2022-10-18T04:39:12.196Z,9.12
2022-10-18T04:41:38.925Z,9.11
2022-10-18T04:44:05.685Z,9.09
2022-10-18T04:46:32.240Z,9.07
2022-10-18T04:49:01.372Z,9.10
2022-10-18T04:51:29.679Z,9.11
2022-10-18T04:53:56.591Z,9.11
2022-10-18T04:56:23.350Z,9.10
2022-10-18T04:58:50.003Z,9.08
2022-10-18T05:01:17.491Z,9.09
2022-10-18T05:03:44.221Z,9.08
2022-10-18T05:06:11.197Z,9.08
2022-10-18T05:08:38.670Z,9.10
2022-10-18T05:11:05.464Z,9.11
2022-10-18T05:13:32.120Z,9.15
2022-10-18T05:16:00.329Z,9.12
2022-10-18T05:18:27.528Z,9.07
2022-10-18T05:20:54.123Z,9.06
2022-10-18T05:23:20.819Z,9.06
2022-10-18T05:25:47.575Z,9.05
2022-10-18T05:28:38.861Z,9.02
2022-10-18T05:31:02.836Z,9.04
2022-10-18T05:33:29.873Z,9.09
2022-10-18T05:35:56.932Z,9.17
2022-10-18T05:38:23.631Z,9.20
2022-10-18T05:40:50.335Z,9.26
2022-10-18T05:43:17.953Z,9.30
2022-10-18T05:45:49.536Z,9.37
2022-10-18T05:48:16.175Z,9.50
2022-10-18T05:50:43.218Z,9.62
2022-10-18T05:53:12.368Z,9.69
2022-10-18T05:55:45.124Z,9.78
2022-10-18T05:58:11.759Z,9.86
2022-10-18T06:00:38.801Z,9.96
2022-10-18T06:03:05.512Z,10.10
2022-10-18T06:05:32.172Z,10.19
2022-10-18T06:07:58.867Z,10.14
2022-10-18T06:10:25.755Z,10.13
2022-10-18T06:12:52.417Z,10.19
2022-10-18T06:15:19.068Z,10.40
2022-10-18T06:17:45.687Z,10.58
2022-10-18T06:20:12.330Z,10.68
2022-10-18T06:22:38.962Z,10.96
2022-10-18T06:25:06.096Z,10.99
2022-10-18T06:27:35.307Z,11.24
2022-10-18T06:30:02.152Z,11.40
2022-10-18T06:32:28.877Z,11.53
2022-10-18T06:34:55.494Z,11.44
2022-10-18T06:37:22.165Z,11.66
2022-10-18T06:39:48.753Z,11.76
2022-10-18T06:42:19.075Z,11.93
2022-10-18T06:44:48.454Z,12.06
2022-10-18T06:47:15.086Z,12.19
2022-10-18T06:49:41.716Z,12.36
2022-10-18T06:52:08.450Z,12.83
2022-10-18T06:54:35.170Z,13.18
2022-10-18T06:57:02.814Z,13.77
2022-10-18T06:59:31.301Z,14.16
2022-10-18T07:01:58.349Z,14.61
2022-10-18T07:04:29.485Z,15.09
2022-10-18T07:06:56.207Z,15.31
2022-10-18T07:09:23.008Z,15.86
2022-10-18T07:11:49.649Z,16.17
2022-10-18T07:14:16.627Z,16.45
2022-10-18T07:16:43.257Z,16.67
2022-10-18T07:19:09.902Z,16.87
2022-10-18T07:21:36.682Z,17.11
2022-10-18T07:24:03.379Z,17.28
2022-10-18T07:26:34.353Z,17.43
2022-10-18T07:29:10.782Z,17.67
2022-10-18T07:31:38.861Z,18.12
2022-10-18T07:34:06.404Z,18.66
2022-10-18T07:36:33.239Z,19.33
2022-10-18T07:38:59.908Z,19.78
2022-10-18T07:41:26.817Z,19.98
2022-10-18T07:43:54.354Z,19.69
2022-10-18T07:46:22.387Z,20.31
2022-10-18T07:48:49.875Z,21.78
2022-10-18T07:51:17.258Z,22.29
2022-10-18T07:53:43.888Z,23.28
2022-10-18T07:56:18.223Z,23.44
2022-10-18T07:58:46.086Z,23.87
2022-10-18T08:01:14.025Z,23.31
2022-10-18T08:03:42.026Z,24.05
2022-10-18T08:06:11.321Z,24.09
2022-10-18T08:08:39.393Z,24.01
2022-10-18T08:11:18.599Z,24.44
2022-10-18T08:13:45.461Z,24.16
2022-10-18T08:16:17.936Z,23.69
2022-10-18T08:18:44.805Z,23.41
2022-10-18T08:21:13.683Z,23.13
2022-10-18T08:23:41.205Z,23.34
2022-10-18T08:26:12.923Z,23.56
2022-10-18T08:28:40.483Z,24.22
2022-10-18T08:31:14.539Z,23.99
2022-10-18T08:33:41.195Z,23.82
2022-10-18T08:36:10.678Z,24.18
2022-10-18T08:38:39.174Z,23.70
2022-10-18T08:41:27.009Z,23.36
2022-10-18T08:44:13.893Z,23.79
2022-10-18T08:46:45.798Z,23.75
2022-10-18T08:49:24.130Z,24.29
2022-10-18T08:51:51.927Z,24.36
2022-10-18T08:54:37.373Z,24.71
2022-10-18T08:57:14.971Z,24.22
2022-10-18T08:59:42.194Z,23.97
2022-10-18T09:02:53.261Z,23.89
2022-10-18T09:05:39.978Z,24.34
2022-10-18T09:08:39.290Z,24.91
2022-10-18T09:11:27.554Z,24.91
2022-10-18T09:14:32.468Z,25.26
2022-10-18T09:17:16.237Z,25.37
2022-10-18T09:22:42.193Z,24.94
2022-10-18T09:25:19.624Z,24.71
2022-10-18T09:28:23.871Z,24.68
2022-10-18T09:31:03.393Z,24.65
2022-10-18T09:33:46.877Z,23.98
2022-10-18T09:36:21.875Z,23.75
2022-10-18T09:38:52.723Z,23.67
2022-10-18T09:41:30.331Z,24.31
2022-10-18T09:44:03.708Z,24.44
2022-10-18T09:46:39.254Z,24.95
2022-10-18T09:49:16.546Z,24.61
2022-10-18T09:51:45.609Z,23.85
2022-10-18T09:55:05.500Z,23.77
2022-10-18T09:57:52.508Z,24.72
2022-10-18T10:00:25.802Z,25.55
2022-10-18T10:02:53.549Z,26.53
2022-10-18T10:05:20.488Z,27.11
2022-10-18T10:07:49.274Z,26.01
2022-10-18T10:10:25.404Z,25.46
2022-10-18T10:13:22.996Z,24.44
2022-10-18T10:16:08.460Z,23.85
2022-10-18T10:18:39.090Z,23.74
2022-10-18T10:21:13.149Z,23.98
2022-10-18T10:23:47.001Z,23.73
2022-10-18T10:26:24.683Z,23.67
2022-10-18T10:28:51.895Z,23.92
2022-10-18T10:31:24.132Z,23.74
2022-10-18T10:34:12.623Z,23.69
2022-10-18T10:36:48.890Z,23.81
2022-10-18T10:39:19.036Z,24.08
2022-10-18T10:41:51.974Z,24.37
2022-10-18T10:44:24.530Z,24.13
2022-10-18T10:46:52.159Z,23.72
2022-10-18T10:52:27.345Z,22.44
2022-10-18T10:55:05.690Z,22.31
2022-10-18T10:57:38.740Z,22.18
2022-10-18T11:00:05.749Z,21.90
2022-10-18T11:02:34.980Z,21.51
2022-10-18T11:05:20.501Z,21.37
2022-10-18T11:07:47.684Z,21.08
2022-10-18T11:10:19.684Z,20.96
2022-10-18T11:12:56.336Z,21.17
2022-10-18T11:15:36.960Z,21.57
2022-10-18T11:18:18.596Z,21.57
2022-10-18T11:20:50.977Z,21.58
2022-10-18T11:23:18.501Z,21.47
2022-10-18T11:26:08.694Z,21.39
2022-10-18T11:29:12.675Z,21.68
2022-10-18T11:32:08.181Z,21.45
2022-10-18T11:34:49.662Z,21.32
2022-10-18T11:37:34.724Z,21.32
2022-10-18T11:40:28.635Z,21.40
2022-10-18T11:43:57.133Z,21.37
2022-10-18T11:46:33.966Z,21.64
2022-10-18T11:49:28.730Z,21.50
2022-10-18T11:52:18.604Z,21.45
2022-10-18T11:55:10.091Z,21.53
2022-10-18T11:58:20.366Z,21.41
2022-10-18T12:00:56.438Z,21.24
2022-10-18T12:03:33.869Z,21.27
2022-10-18T12:06:06.606Z,20.94
2022-10-18T12:08:44.946Z,20.68
2022-10-18T12:11:47.167Z,20.61
2022-10-18T12:14:24.277Z,20.87
2022-10-18T12:17:07.798Z,20.97
2022-10-18T12:19:40.564Z,21.09
2022-10-18T12:22:28.412Z,20.97
2022-10-18T12:24:54.982Z,20.94
2022-10-18T12:27:40.471Z,20.88
2022-10-18T12:30:15.729Z,21.03
2022-10-18T12:32:56.394Z,21.10
2022-10-18T12:35:35.212Z,21.06
2022-10-18T12:38:12.403Z,20.91
2022-10-18T12:40:43.551Z,20.71
2022-10-18T12:43:18.266Z,20.54
2022-10-18T12:45:54.911Z,20.50
2022-10-18T12:48:42.776Z,20.44
2022-10-18T12:51:18.910Z,20.37
2022-10-18T12:53:49.148Z,20.33
2022-10-18T12:56:27.927Z,20.30
2022-10-18T12:59:16.262Z,20.25
2022-10-18T13:01:54.845Z,20.32
2022-10-18T13:04:39.832Z,20.39
2022-10-18T13:07:08.054Z,20.44
2022-10-18T13:09:44.626Z,20.54
2022-10-18T13:12:11.184Z,20.70
2022-10-18T13:15:12.749Z,20.73
2022-10-18T13:18:05.118Z,20.90
2022-10-18T13:20:44.177Z,20.98
2022-10-18T13:23:42.615Z,20.78
2022-10-18T13:26:40.069Z,20.84
2022-10-18T13:29:24.715Z,20.93
2022-10-18T13:31:55.581Z,21.09
2022-10-18T13:34:25.218Z,21.10
2022-10-18T13:37:01.236Z,21.06
2022-10-18T13:39:29.227Z,20.86
2022-10-18T13:41:59.962Z,20.59
2022-10-18T13:44:40.456Z,20.49
2022-10-18T13:47:07.172Z,20.52
2022-10-18T13:49:39.713Z,20.49
2022-10-18T13:52:15.022Z,20.28
2022-10-18T13:55:19.831Z,20.12
2022-10-18T13:58:02.943Z,20.06
2022-10-18T14:00:54.180Z,20.04
2022-10-18T14:03:55.729Z,19.96
2022-10-18T14:06:38.839Z,19.85
2022-10-18T14:09:25.477Z,19.63
2022-10-18T14:12:14.671Z,19.29
2022-10-18T14:14:45.519Z,18.92
2022-10-18T14:17:35.474Z,18.72
2022-10-18T14:20:15.146Z,18.53
2022-10-18T14:23:02.762Z,18.08
2022-10-18T14:25:33.189Z,17.84
2022-10-18T14:28:14.655Z,17.41
2022-10-18T14:31:06.577Z,17.20
2022-10-18T14:33:33.166Z,16.95
2022-10-18T14:36:06.715Z,16.51
2022-10-18T14:38:44.580Z,16.25
2022-10-18T14:41:37.679Z,15.86
2022-10-18T14:44:16.480Z,15.60
2022-10-18T14:46:43.928Z,15.38
2022-10-18T14:49:12.558Z,15.14
2022-10-18T14:51:42.535Z,15.02
2022-10-18T14:54:18.659Z,14.76
2022-10-18T14:56:49.090Z,14.56
2022-10-18T14:59:27.806Z,14.43
2022-10-18T15:02:03.266Z,14.25
2022-10-18T15:04:33.432Z,13.96
2022-10-18T15:07:05.646Z,13.83
2022-10-18T15:09:34.895Z,13.75
2022-10-18T15:12:05.806Z,13.74
2022-10-18T15:14:32.992Z,13.70
2022-10-18T15:17:03.755Z,13.71
2022-10-18T15:19:33.789Z,13.65
2022-10-18T15:22:30.691Z,13.60
2022-10-18T15:25:19.979Z,13.55
2022-10-18T15:27:49.443Z,13.52
2022-10-18T15:30:36.332Z,13.44
2022-10-18T15:33:05.393Z,13.39
2022-10-18T15:35:34.858Z,13.29
2022-10-18T15:38:26.030Z,13.23
2022-10-18T15:40:53.585Z,13.21
2022-10-18T15:43:23.425Z,13.19
2022-10-18T15:46:06.524Z,13.19
2022-10-18T15:48:39.173Z,13.15
2022-10-18T15:51:32.433Z,13.14
2022-10-18T15:53:59.102Z,13.11
2022-10-18T15:56:37.470Z,13.09
2022-10-18T15:59:21.007Z,13.05
2022-10-18T16:01:47.893Z,13.05
2022-10-18T16:04:26.709Z,13.03
2022-10-18T16:06:55.584Z,13.03
2022-10-18T16:09:27.231Z,13.03
2022-10-18T16:11:56.984Z,13.01
2022-10-18T16:14:26.017Z,13.01
2022-10-18T16:16:56.878Z,13.00
2022-10-18T16:19:23.517Z,13.01
2022-10-18T16:21:52.654Z,13.03
2022-10-18T16:24:21.427Z,13.03
2022-10-18T16:26:48.930Z,13.04
2022-10-18T16:29:24.469Z,13.03
2022-10-18T16:31:53.624Z,13.05
2022-10-18T16:34:20.311Z,13.07
2022-10-18T16:36:46.941Z,13.07
2022-10-18T16:39:18.691Z,13.07
2022-10-18T16:41:45.861Z,13.07
2022-10-18T16:44:14.219Z,13.08
2022-10-18T16:46:42.332Z,13.08
2022-10-18T16:51:46.793Z,13.06
2022-10-18T16:54:13.489Z,13.07
2022-10-18T16:56:40.733Z,13.07
2022-10-18T16:59:27.259Z,13.04
2022-10-18T17:01:53.837Z,13.05
2022-10-18T17:04:20.406Z,13.04
2022-10-18T17:06:49.078Z,13.04
2022-10-18T17:09:16.192Z,13.03
2022-10-18T17:11:43.225Z,13.04
2022-10-18T17:14:10.179Z,13.02
2022-10-18T17:16:39.083Z,13.02
2022-10-18T17:19:08.151Z,13.01
2022-10-18T17:21:36.201Z,13.00
2022-10-18T17:24:04.514Z,12.99
2022-10-18T17:26:31.343Z,12.98
2022-10-18T17:29:03.159Z,12.99
2022-10-18T17:31:31.412Z,12.97
2022-10-18T17:34:01.237Z,12.99
2022-10-18T17:36:28.720Z,12.96
2022-10-18T17:38:55.498Z,12.99
2022-10-18T17:41:23.734Z,12.97
2022-10-18T17:43:50.434Z,12.97
2022-10-18T17:46:19.163Z,12.98
2022-10-18T17:48:45.955Z,12.95
2022-10-18T17:51:15.113Z,12.93
2022-10-18T17:53:41.814Z,12.92
2022-10-18T17:56:10.191Z,12.91
2022-10-18T17:58:36.868Z,12.91
2022-10-18T18:01:13.979Z,12.93
2022-10-18T18:03:42.184Z,12.92
2022-10-18T18:06:13.761Z,12.91
2022-10-18T18:08:40.376Z,12.87
2022-10-18T18:11:07.310Z,12.85
2022-10-18T18:13:33.966Z,12.82
2022-10-18T18:16:10.833Z,12.79
2022-10-18T18:18:37.634Z,12.77
2022-10-18T18:21:04.291Z,12.76
2022-10-18T18:23:31.092Z,12.78
2022-10-18T18:25:58.333Z,12.77
2022-10-18T18:28:25.002Z,12.77
2022-10-18T18:30:51.717Z,12.75
2022-10-18T18:33:18.343Z,12.75
2022-10-18T18:35:54.653Z,12.74
2022-10-18T18:38:21.281Z,12.75
2022-10-18T18:40:47.874Z,12.72
2022-10-18T18:43:29.166Z,12.73
2022-10-18T18:45:56.104Z,12.73
2022-10-18T18:48:22.734Z,12.74
2022-10-18T18:50:51.325Z,12.74
2022-10-18T18:53:18.949Z,12.74
2022-10-18T18:55:45.772Z,12.74
2022-10-18T18:58:12.644Z,12.74
2022-10-18T19:00:43.429Z,12.75
2022-10-18T19:03:12.348Z,12.75
2022-10-18T19:05:39.174Z,12.75
2022-10-18T19:08:06.359Z,12.77
2022-10-18T19:10:32.989Z,12.76
2022-10-18T19:12:59.877Z,12.76
2022-10-18T19:15:26.644Z,12.75
2022-10-18T19:17:53.256Z,12.76
2022-10-18T19:20:21.188Z,12.77
2022-10-18T19:22:47.767Z,12.78
2022-10-18T19:25:14.486Z,12.79
2022-10-18T19:27:41.123Z,12.80
2022-10-18T19:30:09.474Z,12.80
2022-10-18T19:32:36.366Z,12.79
2022-10-18T19:35:03.610Z,12.78
2022-10-18T19:37:30.290Z,12.78
2022-10-18T19:39:56.970Z,12.77
2022-10-18T19:42:27.550Z,12.75
2022-10-18T19:44:57.218Z,12.72
2022-10-18T19:47:23.837Z,12.76
2022-10-18T19:49:50.432Z,12.75
2022-10-18T19:52:17.112Z,12.73
2022-10-18T19:54:45.099Z,12.73
2022-10-18T19:57:11.850Z,12.71
2022-10-18T20:02:25.892Z,12.71
2022-10-18T20:04:52.473Z,12.71
2022-10-18T20:07:19.060Z,12.71
2022-10-18T20:09:47.309Z,12.70
2022-10-18T20:12:13.905Z,12.69
2022-10-18T20:14:40.479Z,12.70
2022-10-18T20:17:07.174Z,12.71
2022-10-18T20:19:33.864Z,12.71
2022-10-18T20:22:00.468Z,12.73
2022-10-18T20:24:27.238Z,12.74
2022-10-18T20:26:54.033Z,12.74
2022-10-18T20:29:25.237Z,12.75
2022-10-18T20:31:55.561Z,12.74
2022-10-18T20:34:25.963Z,12.73
2022-10-18T20:36:56.024Z,12.73
2022-10-18T20:39:23.017Z,12.72
2022-10-18T20:41:49.966Z,12.73
2022-10-18T20:44:19.443Z,12.73
2022-10-18T20:46:46.178Z,12.74
2022-10-18T20:49:15.235Z,12.73
2022-10-18T20:51:42.210Z,12.78
2022-10-18T20:54:09.712Z,12.78
2022-10-18T20:56:38.804Z,12.78
2022-10-18T20:59:09.726Z,12.79
2022-10-18T21:01:38.773Z,12.81
2022-10-18T21:04:07.553Z,12.81
2022-10-18T21:06:42.882Z,12.81
2022-10-18T21:09:12.838Z,12.83
2022-10-18T21:11:41.516Z,12.84
2022-10-18T21:14:13.391Z,12.84
2022-10-18T21:16:40.503Z,12.84
2022-10-18T21:19:12.958Z,12.84
2022-10-18T21:21:41.563Z,12.88
2022-10-18T21:24:08.426Z,12.86
2022-10-18T21:26:35.766Z,12.87
2022-10-18T21:29:03.165Z,12.87
2022-10-18T21:31:36.416Z,12.89
2022-10-18T21:34:06.129Z,12.89
2022-10-18T21:36:35.685Z,12.90
2022-10-18T21:39:04.595Z,12.90
2022-10-18T21:41:33.916Z,12.91
2022-10-18T21:44:03.517Z,12.91
2022-10-18T21:46:32.962Z,12.87
2022-10-18T21:48:59.604Z,12.89
2022-10-18T21:51:28.525Z,12.88
2022-10-18T21:53:57.809Z,12.88
2022-10-18T21:56:27.149Z,12.88
2022-10-18T21:58:54.568Z,12.88
2022-10-18T22:01:33.969Z,12.86
2022-10-18T22:04:03.324Z,12.86
2022-10-18T22:06:32.857Z,12.85
2022-10-18T22:09:02.269Z,12.83
2022-10-18T22:11:39.731Z,12.83
2022-10-18T22:14:06.852Z,12.83
2022-10-18T22:16:33.810Z,12.82
2022-10-18T22:19:02.232Z,12.81
2022-10-18T22:21:29.579Z,12.78
2022-10-18T22:23:57.773Z,12.76
2022-10-18T22:26:29.617Z,12.74
2022-10-18T22:29:08.195Z,12.73
2022-10-18T22:31:36.850Z,12.73
2022-10-18T22:34:06.423Z,12.68
2022-10-18T22:36:34.480Z,12.63
2022-10-18T22:39:01.603Z,12.56
2022-10-18T22:41:28.550Z,12.50
2022-10-18T22:43:57.300Z,12.42
2022-10-18T22:46:26.560Z,12.35
2022-10-18T22:48:53.483Z,12.30
2022-10-18T22:51:21.335Z,12.25
2022-10-18T22:53:48.152Z,12.15
2022-10-18T22:56:20.868Z,12.09
2022-10-18T22:58:48.334Z,12.05
2022-10-18T23:01:17.889Z,12.06
2022-10-18T23:03:44.661Z,12.07
2022-10-18T23:06:23.976Z,12.05
2022-10-18T23:08:51.487Z,12.10
2022-10-18T23:11:19.053Z,12.10
2022-10-18T23:13:46.131Z,12.10
2022-10-18T23:16:13.282Z,12.08
2022-10-18T23:19:38.907Z,12.06
2022-10-18T23:22:05.633Z,12.03
2022-10-18T23:24:32.229Z,12.05
2022-10-18T23:26:58.947Z,12.04
2022-10-18T23:29:25.617Z,12.00
2022-10-18T23:31:52.285Z,11.93
2022-10-18T23:34:18.845Z,11.81
2022-10-18T23:36:45.435Z,11.71
2022-10-18T23:39:12.147Z,11.63
2022-10-18T23:41:38.764Z,11.51
2022-10-18T23:44:05.578Z,11.43
2022-10-18T23:46:32.242Z,11.31
2022-10-18T23:48:58.844Z,11.24
2022-10-18T23:51:25.449Z,11.10
2022-10-18T23:53:52.105Z,11.05
2022-10-18T23:56:18.847Z,10.97
2022-10-18T23:58:45.550Z,10.89
